sensor_id;sensor_type;location;lat;lon;timestamp;temperature;humidity
21037;DHT22;10677;50.942;4.028;2023-04-25T00:00:29;10.60;99.90
21037;DHT22;10677;50.942;4.028;2023-04-25T00:02:55;10.50;99.90
21037;DHT22;10677;50.942;4.028;2023-04-25T00:05:26;10.40;99.90
21037;DHT22;10677;50.942;4.028;2023-04-25T00:07:51;10.50;99.90
21037;DHT22;10677;50.942;4.028;2023-04-25T00:10:19;10.30;99.90
21037;DHT22;10677;50.942;4.028;2023-04-25T00:12:45;10.20;99.90
21037;DHT22;10677;50.942;4.028;2023-04-25T00:15:11;10.00;99.90
21037;DHT22;10677;50.942;4.028;2023-04-25T00:17:37;9.90;99.90
21037;DHT22;10677;50.942;4.028;2023-04-25T00:20:06;10.00;99.90
21037;DHT22;10677;50.942;4.028;2023-04-25T00:22:35;10.00;99.90
21037;DHT22;10677;50.942;4.028;2023-04-25T00:25:06;10.10;99.90
21037;DHT22;10677;50.942;4.028;2023-04-25T00:27:32;10.20;99.90
21037;DHT22;10677;50.942;4.028;2023-04-25T00:29:58;10.20;99.90
21037;DHT22;10677;50.942;4.028;2023-04-25T00:32:23;10.20;99.90
21037;DHT22;10677;50.942;4.028;2023-04-25T00:34:49;10.20;99.90
21037;DHT22;10677;50.942;4.028;2023-04-25T00:37:15;10.10;99.90
21037;DHT22;10677;50.942;4.028;2023-04-25T00:39:41;10.00;99.90
21037;DHT22;10677;50.942;4.028;2023-04-25T00:42:07;9.90;99.90
21037;DHT22;10677;50.942;4.028;2023-04-25T00:44:34;9.80;99.90
21037;DHT22;10677;50.942;4.028;2023-04-25T00:47:02;9.70;99.90
21037;DHT22;10677;50.942;4.028;2023-04-25T00:49:28;9.90;99.90
21037;DHT22;10677;50.942;4.028;2023-04-25T00:51:54;9.90;99.90
21037;DHT22;10677;50.942;4.028;2023-04-25T00:54:20;9.70;99.90
21037;DHT22;10677;50.942;4.028;2023-04-25T00:56:46;9.70;99.90
21037;DHT22;10677;50.942;4.028;2023-04-25T00:59:12;9.60;99.90
21037;DHT22;10677;50.942;4.028;2023-04-25T01:01:39;9.60;99.90
21037;DHT22;10677;50.942;4.028;2023-04-25T01:04:05;9.60;99.90
21037;DHT22;10677;50.942;4.028;2023-04-25T01:06:31;9.60;99.90
21037;DHT22;10677;50.942;4.028;2023-04-25T01:08:57;9.50;99.90
21037;DHT22;10677;50.942;4.028;2023-04-25T01:11:24;9.60;99.90
21037;DHT22;10677;50.942;4.028;2023-04-25T01:13:50;9.60;99.90
21037;DHT22;10677;50.942;4.028;2023-04-25T01:16:16;9.40;99.90
21037;DHT22;10677;50.942;4.028;2023-04-25T01:18:42;9.30;99.90
21037;DHT22;10677;50.942;4.028;2023-04-25T01:21:10;9.50;99.90
21037;DHT22;10677;50.942;4.028;2023-04-25T01:23:38;9.30;99.90
21037;DHT22;10677;50.942;4.028;2023-04-25T01:26:04;9.20;99.90
21037;DHT22;10677;50.942;4.028;2023-04-25T01:28:31;9.00;99.90
21037;DHT22;10677;50.942;4.028;2023-04-25T01:30:59;9.00;99.90
21037;DHT22;10677;50.942;4.028;2023-04-25T01:33:25;9.00;99.90
21037;DHT22;10677;50.942;4.028;2023-04-25T01:35:50;9.10;99.90
21037;DHT22;10677;50.942;4.028;2023-04-25T01:38:16;9.20;99.90
21037;DHT22;10677;50.942;4.028;2023-04-25T01:40:45;9.40;99.90
21037;DHT22;10677;50.942;4.028;2023-04-25T01:43:12;9.30;99.90
21037;DHT22;10677;50.942;4.028;2023-04-25T01:45:40;9.20;99.90
21037;DHT22;10677;50.942;4.028;2023-04-25T01:48:07;9.20;99.90
21037;DHT22;10677;50.942;4.028;2023-04-25T01:50:33;9.00;99.90
21037;DHT22;10677;50.942;4.028;2023-04-25T01:52:59;8.90;99.90
21037;DHT22;10677;50.942;4.028;2023-04-25T01:55:25;9.00;99.90
21037;DHT22;10677;50.942;4.028;2023-04-25T01:57:51;9.10;99.90
21037;DHT22;10677;50.942;4.028;2023-04-25T02:00:17;9.10;99.90
21037;DHT22;10677;50.942;4.028;2023-04-25T02:02:43;9.20;99.90
21037;DHT22;10677;50.942;4.028;2023-04-25T02:05:08;9.00;99.90
21037;DHT22;10677;50.942;4.028;2023-04-25T02:07:34;8.80;99.90
21037;DHT22;10677;50.942;4.028;2023-04-25T02:10:00;8.70;99.90
21037;DHT22;10677;50.942;4.028;2023-04-25T02:12:26;8.60;99.90
21037;DHT22;10677;50.942;4.028;2023-04-25T02:14:52;8.60;99.90
21037;DHT22;10677;50.942;4.028;2023-04-25T02:17:18;8.60;99.90
21037;DHT22;10677;50.942;4.028;2023-04-25T02:19:44;8.50;99.90
21037;DHT22;10677;50.942;4.028;2023-04-25T02:22:10;8.50;99.90
21037;DHT22;10677;50.942;4.028;2023-04-25T02:24:36;8.50;99.90
21037;DHT22;10677;50.942;4.028;2023-04-25T02:27:02;8.40;99.90
21037;DHT22;10677;50.942;4.028;2023-04-25T02:29:28;8.40;99.90
21037;DHT22;10677;50.942;4.028;2023-04-25T02:31:54;8.30;99.90
21037;DHT22;10677;50.942;4.028;2023-04-25T02:34:20;8.30;99.90
21037;DHT22;10677;50.942;4.028;2023-04-25T02:36:46;8.20;99.90
21037;DHT22;10677;50.942;4.028;2023-04-25T02:39:11;8.20;99.90
21037;DHT22;10677;50.942;4.028;2023-04-25T02:41:37;8.20;99.90
21037;DHT22;10677;50.942;4.028;2023-04-25T02:44:03;8.10;99.90
21037;DHT22;10677;50.942;4.028;2023-04-25T02:46:28;8.00;99.90
21037;DHT22;10677;50.942;4.028;2023-04-25T02:48:54;7.90;99.90
21037;DHT22;10677;50.942;4.028;2023-04-25T02:51:19;7.90;99.90
21037;DHT22;10677;50.942;4.028;2023-04-25T02:53:45;7.90;99.90
21037;DHT22;10677;50.942;4.028;2023-04-25T02:56:11;7.80;99.90
21037;DHT22;10677;50.942;4.028;2023-04-25T02:58:36;7.80;99.90
21037;DHT22;10677;50.942;4.028;2023-04-25T03:01:02;7.80;99.90
21037;DHT22;10677;50.942;4.028;2023-04-25T03:03:28;7.80;99.90
21037;DHT22;10677;50.942;4.028;2023-04-25T03:05:53;7.80;99.90
21037;DHT22;10677;50.942;4.028;2023-04-25T03:08:19;7.70;99.90
21037;DHT22;10677;50.942;4.028;2023-04-25T03:10:46;7.70;99.90
21037;DHT22;10677;50.942;4.028;2023-04-25T03:13:12;7.70;99.90
21037;DHT22;10677;50.942;4.028;2023-04-25T03:15:38;7.60;99.90
21037;DHT22;10677;50.942;4.028;2023-04-25T03:18:04;7.60;99.90
21037;DHT22;10677;50.942;4.028;2023-04-25T03:20:30;7.60;99.90
21037;DHT22;10677;50.942;4.028;2023-04-25T03:22:56;7.60;99.90
21037;DHT22;10677;50.942;4.028;2023-04-25T03:25:22;7.60;99.90
21037;DHT22;10677;50.942;4.028;2023-04-25T03:27:47;7.60;99.90
21037;DHT22;10677;50.942;4.028;2023-04-25T03:30:13;7.60;99.90
21037;DHT22;10677;50.942;4.028;2023-04-25T03:32:39;7.60;99.90
21037;DHT22;10677;50.942;4.028;2023-04-25T03:35:05;7.70;99.90
21037;DHT22;10677;50.942;4.028;2023-04-25T03:37:31;7.90;99.90
21037;DHT22;10677;50.942;4.028;2023-04-25T03:39:56;8.10;99.90
21037;DHT22;10677;50.942;4.028;2023-04-25T03:42:22;8.40;99.90
21037;DHT22;10677;50.942;4.028;2023-04-25T03:44:49;8.40;99.90
21037;DHT22;10677;50.942;4.028;2023-04-25T03:47:15;8.10;99.90
21037;DHT22;10677;50.942;4.028;2023-04-25T03:49:41;8.10;99.90
21037;DHT22;10677;50.942;4.028;2023-04-25T03:52:07;8.00;99.90
21037;DHT22;10677;50.942;4.028;2023-04-25T03:54:32;7.90;99.90
21037;DHT22;10677;50.942;4.028;2023-04-25T03:56:58;7.90;99.90
21037;DHT22;10677;50.942;4.028;2023-04-25T03:59:24;8.00;99.90
21037;DHT22;10677;50.942;4.028;2023-04-25T04:01:51;8.10;99.90
21037;DHT22;10677;50.942;4.028;2023-04-25T04:04:17;8.20;99.90
21037;DHT22;10677;50.942;4.028;2023-04-25T04:06:43;8.10;99.90
21037;DHT22;10677;50.942;4.028;2023-04-25T04:09:09;7.90;99.90
21037;DHT22;10677;50.942;4.028;2023-04-25T04:11:37;7.80;99.90
21037;DHT22;10677;50.942;4.028;2023-04-25T04:14:05;7.70;99.90
21037;DHT22;10677;50.942;4.028;2023-04-25T04:16:31;7.70;99.90
21037;DHT22;10677;50.942;4.028;2023-04-25T04:18:56;7.70;99.90
21037;DHT22;10677;50.942;4.028;2023-04-25T04:21:22;7.70;99.90
21037;DHT22;10677;50.942;4.028;2023-04-25T04:23:48;7.60;99.90
21037;DHT22;10677;50.942;4.028;2023-04-25T04:26:14;7.50;99.90
21037;DHT22;10677;50.942;4.028;2023-04-25T04:28:42;7.50;99.90
21037;DHT22;10677;50.942;4.028;2023-04-25T04:31:09;7.50;99.90
21037;DHT22;10677;50.942;4.028;2023-04-25T04:33:35;7.50;99.90
21037;DHT22;10677;50.942;4.028;2023-04-25T04:36:02;7.60;99.90
21037;DHT22;10677;50.942;4.028;2023-04-25T04:38:29;7.60;99.90
21037;DHT22;10677;50.942;4.028;2023-04-25T04:40:55;7.70;99.90
21037;DHT22;10677;50.942;4.028;2023-04-25T04:43:21;7.70;99.90
21037;DHT22;10677;50.942;4.028;2023-04-25T04:45:48;7.80;99.90
21037;DHT22;10677;50.942;4.028;2023-04-25T04:48:14;7.90;99.90
21037;DHT22;10677;50.942;4.028;2023-04-25T04:50:40;8.00;99.90
21037;DHT22;10677;50.942;4.028;2023-04-25T04:53:06;7.90;99.90
21037;DHT22;10677;50.942;4.028;2023-04-25T04:55:32;8.00;99.90
21037;DHT22;10677;50.942;4.028;2023-04-25T04:57:58;8.10;99.90
21037;DHT22;10677;50.942;4.028;2023-04-25T05:00:24;8.10;99.90
21037;DHT22;10677;50.942;4.028;2023-04-25T05:02:49;8.30;99.90
21037;DHT22;10677;50.942;4.028;2023-04-25T05:05:15;8.30;99.90
21037;DHT22;10677;50.942;4.028;2023-04-25T05:07:41;8.30;99.90
21037;DHT22;10677;50.942;4.028;2023-04-25T05:10:07;8.30;99.90
21037;DHT22;10677;50.942;4.028;2023-04-25T05:12:32;8.10;99.90
21037;DHT22;10677;50.942;4.028;2023-04-25T05:14:58;8.20;99.90
21037;DHT22;10677;50.942;4.028;2023-04-25T05:17:24;8.30;99.90
21037;DHT22;10677;50.942;4.028;2023-04-25T05:19:49;8.30;99.90
21037;DHT22;10677;50.942;4.028;2023-04-25T05:22:15;8.20;99.90
21037;DHT22;10677;50.942;4.028;2023-04-25T05:24:42;8.10;99.90
21037;DHT22;10677;50.942;4.028;2023-04-25T05:27:07;8.10;99.90
21037;DHT22;10677;50.942;4.028;2023-04-25T05:29:33;8.10;99.90
21037;DHT22;10677;50.942;4.028;2023-04-25T05:31:59;8.00;99.90
21037;DHT22;10677;50.942;4.028;2023-04-25T05:34:24;8.10;99.90
21037;DHT22;10677;50.942;4.028;2023-04-25T05:36:50;8.10;99.90
21037;DHT22;10677;50.942;4.028;2023-04-25T05:39:16;8.00;99.90
21037;DHT22;10677;50.942;4.028;2023-04-25T05:41:44;7.90;99.90
21037;DHT22;10677;50.942;4.028;2023-04-25T05:44:10;8.00;99.90
21037;DHT22;10677;50.942;4.028;2023-04-25T05:46:36;8.00;99.90
21037;DHT22;10677;50.942;4.028;2023-04-25T05:49:01;8.00;99.90
21037;DHT22;10677;50.942;4.028;2023-04-25T05:51:27;8.20;99.90
21037;DHT22;10677;50.942;4.028;2023-04-25T05:53:54;8.40;99.90
21037;DHT22;10677;50.942;4.028;2023-04-25T05:56:20;8.30;99.90
21037;DHT22;10677;50.942;4.028;2023-04-25T05:58:46;8.30;99.90
21037;DHT22;10677;50.942;4.028;2023-04-25T06:01:12;8.60;99.90
21037;DHT22;10677;50.942;4.028;2023-04-25T06:03:38;8.70;99.90
21037;DHT22;10677;50.942;4.028;2023-04-25T06:06:05;8.60;99.90
21037;DHT22;10677;50.942;4.028;2023-04-25T06:08:32;8.60;99.90
21037;DHT22;10677;50.942;4.028;2023-04-25T06:10:57;8.50;99.90
21037;DHT22;10677;50.942;4.028;2023-04-25T06:13:23;8.70;99.90
21037;DHT22;10677;50.942;4.028;2023-04-25T06:15:49;8.70;99.90
21037;DHT22;10677;50.942;4.028;2023-04-25T06:18:14;8.80;99.90
21037;DHT22;10677;50.942;4.028;2023-04-25T06:20:40;8.90;99.90
21037;DHT22;10677;50.942;4.028;2023-04-25T06:23:07;9.10;99.90
21037;DHT22;10677;50.942;4.028;2023-04-25T06:25:33;8.90;99.90
21037;DHT22;10677;50.942;4.028;2023-04-25T06:27:59;8.70;99.90
21037;DHT22;10677;50.942;4.028;2023-04-25T06:30:25;8.50;99.90
21037;DHT22;10677;50.942;4.028;2023-04-25T06:32:52;8.40;99.90
21037;DHT22;10677;50.942;4.028;2023-04-25T06:35:19;8.40;99.90
21037;DHT22;10677;50.942;4.028;2023-04-25T06:37:45;8.40;99.90
21037;DHT22;10677;50.942;4.028;2023-04-25T06:40:12;8.30;99.90
21037;DHT22;10677;50.942;4.028;2023-04-25T06:42:41;8.30;99.90
21037;DHT22;10677;50.942;4.028;2023-04-25T06:45:07;8.50;99.90
21037;DHT22;10677;50.942;4.028;2023-04-25T06:47:35;8.50;99.90
21037;DHT22;10677;50.942;4.028;2023-04-25T06:50:02;8.50;99.90
21037;DHT22;10677;50.942;4.028;2023-04-25T06:52:28;8.40;99.90
21037;DHT22;10677;50.942;4.028;2023-04-25T06:54:53;8.40;99.90
21037;DHT22;10677;50.942;4.028;2023-04-25T06:57:19;8.40;99.90
21037;DHT22;10677;50.942;4.028;2023-04-25T06:59:45;8.40;99.90
21037;DHT22;10677;50.942;4.028;2023-04-25T07:02:11;8.40;99.90
21037;DHT22;10677;50.942;4.028;2023-04-25T07:04:37;8.40;99.90
21037;DHT22;10677;50.942;4.028;2023-04-25T07:07:02;8.60;99.90
21037;DHT22;10677;50.942;4.028;2023-04-25T07:09:29;8.80;99.90
21037;DHT22;10677;50.942;4.028;2023-04-25T07:11:55;9.00;99.90
21037;DHT22;10677;50.942;4.028;2023-04-25T07:14:22;9.10;99.90
21037;DHT22;10677;50.942;4.028;2023-04-25T07:16:48;9.00;99.90
21037;DHT22;10677;50.942;4.028;2023-04-25T07:19:13;9.00;99.90
21037;DHT22;10677;50.942;4.028;2023-04-25T07:21:39;9.00;99.90
21037;DHT22;10677;50.942;4.028;2023-04-25T07:24:07;9.00;99.90
21037;DHT22;10677;50.942;4.028;2023-04-25T07:26:32;8.90;99.90
21037;DHT22;10677;50.942;4.028;2023-04-25T07:28:58;9.10;99.90
21037;DHT22;10677;50.942;4.028;2023-04-25T07:31:24;9.10;99.90
21037;DHT22;10677;50.942;4.028;2023-04-25T07:33:50;9.10;99.90
21037;DHT22;10677;50.942;4.028;2023-04-25T07:36:16;9.10;99.90
21037;DHT22;10677;50.942;4.028;2023-04-25T07:38:41;9.20;99.90
21037;DHT22;10677;50.942;4.028;2023-04-25T07:41:07;9.30;99.90
21037;DHT22;10677;50.942;4.028;2023-04-25T07:43:33;9.30;99.90
21037;DHT22;10677;50.942;4.028;2023-04-25T07:45:58;9.40;99.90
21037;DHT22;10677;50.942;4.028;2023-04-25T07:48:24;9.30;99.90
21037;DHT22;10677;50.942;4.028;2023-04-25T07:50:50;9.30;99.90
21037;DHT22;10677;50.942;4.028;2023-04-25T07:53:16;9.30;99.90
21037;DHT22;10677;50.942;4.028;2023-04-25T07:55:43;9.30;99.90
21037;DHT22;10677;50.942;4.028;2023-04-25T07:58:10;9.20;99.90
21037;DHT22;10677;50.942;4.028;2023-04-25T08:00:36;9.20;99.90
21037;DHT22;10677;50.942;4.028;2023-04-25T08:03:02;9.30;99.90
21037;DHT22;10677;50.942;4.028;2023-04-25T08:05:28;9.20;99.90
21037;DHT22;10677;50.942;4.028;2023-04-25T08:07:54;9.30;99.90
21037;DHT22;10677;50.942;4.028;2023-04-25T08:10:20;9.40;99.90
21037;DHT22;10677;50.942;4.028;2023-04-25T08:12:48;9.20;99.90
21037;DHT22;10677;50.942;4.028;2023-04-25T08:15:14;9.20;99.90
21037;DHT22;10677;50.942;4.028;2023-04-25T08:17:40;9.20;99.90
21037;DHT22;10677;50.942;4.028;2023-04-25T08:20:06;9.20;99.90
21037;DHT22;10677;50.942;4.028;2023-04-25T08:22:32;9.10;99.90
21037;DHT22;10677;50.942;4.028;2023-04-25T08:24:58;9.10;99.90
21037;DHT22;10677;50.942;4.028;2023-04-25T08:27:24;9.10;99.90
21037;DHT22;10677;50.942;4.028;2023-04-25T08:29:50;9.10;99.90
21037;DHT22;10677;50.942;4.028;2023-04-25T08:32:16;9.20;99.90
21037;DHT22;10677;50.942;4.028;2023-04-25T08:34:42;9.30;99.90
21037;DHT22;10677;50.942;4.028;2023-04-25T08:37:09;9.40;99.90
21037;DHT22;10677;50.942;4.028;2023-04-25T08:39:36;9.50;99.90
21037;DHT22;10677;50.942;4.028;2023-04-25T08:42:05;9.50;99.90
21037;DHT22;10677;50.942;4.028;2023-04-25T08:44:34;9.50;99.90
21037;DHT22;10677;50.942;4.028;2023-04-25T08:47:03;9.60;99.90
21037;DHT22;10677;50.942;4.028;2023-04-25T08:49:35;9.40;99.90
21037;DHT22;10677;50.942;4.028;2023-04-25T08:52:03;9.30;99.90
21037;DHT22;10677;50.942;4.028;2023-04-25T08:54:32;9.30;99.90
21037;DHT22;10677;50.942;4.028;2023-04-25T08:57:01;9.40;99.90
21037;DHT22;10677;50.942;4.028;2023-04-25T08:59:30;9.50;99.90
21037;DHT22;10677;50.942;4.028;2023-04-25T09:01:57;9.70;99.90
21037;DHT22;10677;50.942;4.028;2023-04-25T09:04:23;10.00;99.90
21037;DHT22;10677;50.942;4.028;2023-04-25T09:06:48;10.10;99.90
21037;DHT22;10677;50.942;4.028;2023-04-25T09:09:14;10.30;99.90
21037;DHT22;10677;50.942;4.028;2023-04-25T09:11:41;10.10;99.90
21037;DHT22;10677;50.942;4.028;2023-04-25T09:14:15;9.80;99.90
21037;DHT22;10677;50.942;4.028;2023-04-25T09:17:02;9.80;99.90
21037;DHT22;10677;50.942;4.028;2023-04-25T09:19:31;10.10;99.90
21037;DHT22;10677;50.942;4.028;2023-04-25T09:22:00;10.40;99.90
21037;DHT22;10677;50.942;4.028;2023-04-25T09:24:33;10.40;99.90
21037;DHT22;10677;50.942;4.028;2023-04-25T09:26:58;10.80;99.90
21037;DHT22;10677;50.942;4.028;2023-04-25T09:29:35;11.20;99.90
21037;DHT22;10677;50.942;4.028;2023-04-25T09:32:24;10.80;99.90
21037;DHT22;10677;50.942;4.028;2023-04-25T09:34:51;10.40;99.90
21037;DHT22;10677;50.942;4.028;2023-04-25T09:37:25;10.70;99.90
21037;DHT22;10677;50.942;4.028;2023-04-25T09:39:59;10.80;99.90
21037;DHT22;10677;50.942;4.028;2023-04-25T09:42:27;10.80;99.90
21037;DHT22;10677;50.942;4.028;2023-04-25T09:44:54;11.00;99.90
21037;DHT22;10677;50.942;4.028;2023-04-25T09:47:23;11.40;99.90
21037;DHT22;10677;50.942;4.028;2023-04-25T09:49:49;11.90;99.90
21037;DHT22;10677;50.942;4.028;2023-04-25T09:52:17;11.60;99.90
21037;DHT22;10677;50.942;4.028;2023-04-25T09:54:45;11.20;99.90
21037;DHT22;10677;50.942;4.028;2023-04-25T09:59:48;10.70;99.90
21037;DHT22;10677;50.942;4.028;2023-04-25T10:02:16;10.40;99.90
21037;DHT22;10677;50.942;4.028;2023-04-25T10:04:45;10.30;99.90
21037;DHT22;10677;50.942;4.028;2023-04-25T10:07:11;10.10;99.90
21037;DHT22;10677;50.942;4.028;2023-04-25T10:09:39;9.50;99.90
21037;DHT22;10677;50.942;4.028;2023-04-25T10:12:06;8.90;99.90
21037;DHT22;10677;50.942;4.028;2023-04-25T10:14:33;8.70;99.90
21037;DHT22;10677;50.942;4.028;2023-04-25T10:16:59;8.50;99.90
21037;DHT22;10677;50.942;4.028;2023-04-25T10:19:27;8.50;99.90
21037;DHT22;10677;50.942;4.028;2023-04-25T10:22:16;8.60;99.90
21037;DHT22;10677;50.942;4.028;2023-04-25T10:24:43;8.80;99.90
21037;DHT22;10677;50.942;4.028;2023-04-25T10:27:09;9.10;99.90
21037;DHT22;10677;50.942;4.028;2023-04-25T10:29:36;9.00;99.90
21037;DHT22;10677;50.942;4.028;2023-04-25T10:32:02;8.80;99.90
21037;DHT22;10677;50.942;4.028;2023-04-25T10:34:39;8.80;99.90
21037;DHT22;10677;50.942;4.028;2023-04-25T10:37:05;8.70;99.90
21037;DHT22;10677;50.942;4.028;2023-04-25T10:39:33;8.90;99.90
21037;DHT22;10677;50.942;4.028;2023-04-25T10:42:02;9.00;99.90
21037;DHT22;10677;50.942;4.028;2023-04-25T10:44:29;9.10;99.90
21037;DHT22;10677;50.942;4.028;2023-04-25T10:46:59;9.30;99.90
21037;DHT22;10677;50.942;4.028;2023-04-25T10:49:36;9.40;99.90
21037;DHT22;10677;50.942;4.028;2023-04-25T10:54:48;9.70;99.90
21037;DHT22;10677;50.942;4.028;2023-04-25T11:00:00;9.90;99.90
21037;DHT22;10677;50.942;4.028;2023-04-25T11:02:27;9.90;99.90
21037;DHT22;10677;50.942;4.028;2023-04-25T11:04:54;10.10;99.90
21037;DHT22;10677;50.942;4.028;2023-04-25T11:07:49;10.10;99.90
21037;DHT22;10677;50.942;4.028;2023-04-25T11:10:16;10.10;99.90
21037;DHT22;10677;50.942;4.028;2023-04-25T11:12:41;10.00;99.90
21037;DHT22;10677;50.942;4.028;2023-04-25T11:15:08;9.90;99.90
21037;DHT22;10677;50.942;4.028;2023-04-25T11:17:33;10.20;99.90
21037;DHT22;10677;50.942;4.028;2023-04-25T11:20:00;10.10;99.90
21037;DHT22;10677;50.942;4.028;2023-04-25T11:22:27;9.90;99.90
21037;DHT22;10677;50.942;4.028;2023-04-25T11:24:53;10.10;99.90
21037;DHT22;10677;50.942;4.028;2023-04-25T11:27:19;10.10;99.90
21037;DHT22;10677;50.942;4.028;2023-04-25T11:29:47;9.90;99.90
21037;DHT22;10677;50.942;4.028;2023-04-25T11:32:15;9.80;99.90
21037;DHT22;10677;50.942;4.028;2023-04-25T11:34:43;10.10;99.90
21037;DHT22;10677;50.942;4.028;2023-04-25T11:37:10;10.40;99.90
21037;DHT22;10677;50.942;4.028;2023-04-25T11:39:37;10.70;99.90
21037;DHT22;10677;50.942;4.028;2023-04-25T11:42:04;10.70;99.90
21037;DHT22;10677;50.942;4.028;2023-04-25T11:44:31;10.70;99.90
21037;DHT22;10677;50.942;4.028;2023-04-25T11:46:57;10.80;99.90
21037;DHT22;10677;50.942;4.028;2023-04-25T11:49:24;10.90;99.90
21037;DHT22;10677;50.942;4.028;2023-04-25T11:54:31;11.20;99.90
21037;DHT22;10677;50.942;4.028;2023-04-25T11:56:56;11.50;99.90
21037;DHT22;10677;50.942;4.028;2023-04-25T11:59:25;12.00;99.90
21037;DHT22;10677;50.942;4.028;2023-04-25T12:01:52;12.00;99.90
21037;DHT22;10677;50.942;4.028;2023-04-25T12:04:22;12.30;99.90
21037;DHT22;10677;50.942;4.028;2023-04-25T12:06:53;12.10;99.90
21037;DHT22;10677;50.942;4.028;2023-04-25T12:09:21;12.10;99.90
21037;DHT22;10677;50.942;4.028;2023-04-25T12:11:55;12.00;99.90
21037;DHT22;10677;50.942;4.028;2023-04-25T12:14:29;11.90;99.90
21037;DHT22;10677;50.942;4.028;2023-04-25T12:16:57;11.90;99.90
21037;DHT22;10677;50.942;4.028;2023-04-25T12:19:23;11.60;99.90
21037;DHT22;10677;50.942;4.028;2023-04-25T12:21:50;11.60;99.90
21037;DHT22;10677;50.942;4.028;2023-04-25T12:24:23;11.60;99.90
21037;DHT22;10677;50.942;4.028;2023-04-25T12:27:05;11.60;99.90
21037;DHT22;10677;50.942;4.028;2023-04-25T12:29:33;11.70;99.90
21037;DHT22;10677;50.942;4.028;2023-04-25T12:32:00;12.00;99.90
21037;DHT22;10677;50.942;4.028;2023-04-25T12:34:29;12.10;99.90
21037;DHT22;10677;50.942;4.028;2023-04-25T12:36:57;11.80;99.90
21037;DHT22;10677;50.942;4.028;2023-04-25T12:39:24;11.60;99.90
21037;DHT22;10677;50.942;4.028;2023-04-25T12:41:51;11.50;99.90
21037;DHT22;10677;50.942;4.028;2023-04-25T12:44:19;11.10;99.90
21037;DHT22;10677;50.942;4.028;2023-04-25T12:46:45;11.10;99.90
21037;DHT22;10677;50.942;4.028;2023-04-25T12:49:12;11.20;99.90
21037;DHT22;10677;50.942;4.028;2023-04-25T12:51:38;11.40;99.90
21037;DHT22;10677;50.942;4.028;2023-04-25T12:54:05;11.50;99.90
21037;DHT22;10677;50.942;4.028;2023-04-25T12:56:35;12.00;99.90
21037;DHT22;10677;50.942;4.028;2023-04-25T12:59:02;12.50;99.90
21037;DHT22;10677;50.942;4.028;2023-04-25T13:01:29;12.60;99.90
21037;DHT22;10677;50.942;4.028;2023-04-25T13:03:55;12.30;99.90
21037;DHT22;10677;50.942;4.028;2023-04-25T13:06:21;11.70;99.90
21037;DHT22;10677;50.942;4.028;2023-04-25T13:08:47;11.50;99.90
21037;DHT22;10677;50.942;4.028;2023-04-25T13:11:13;11.80;99.90
21037;DHT22;10677;50.942;4.028;2023-04-25T13:13:43;12.00;99.90
21037;DHT22;10677;50.942;4.028;2023-04-25T13:16:09;12.10;99.90
21037;DHT22;10677;50.942;4.028;2023-04-25T13:18:38;12.60;99.90
21037;DHT22;10677;50.942;4.028;2023-04-25T13:21:03;12.60;99.90
21037;DHT22;10677;50.942;4.028;2023-04-25T13:23:30;12.50;99.90
21037;DHT22;10677;50.942;4.028;2023-04-25T13:25:56;12.70;99.90
21037;DHT22;10677;50.942;4.028;2023-04-25T13:28:27;13.00;99.90
21037;DHT22;10677;50.942;4.028;2023-04-25T13:30:53;13.20;99.90
21037;DHT22;10677;50.942;4.028;2023-04-25T13:33:20;13.40;99.90
21037;DHT22;10677;50.942;4.028;2023-04-25T13:35:47;12.80;99.90
21037;DHT22;10677;50.942;4.028;2023-04-25T13:38:22;12.80;99.90
21037;DHT22;10677;50.942;4.028;2023-04-25T13:40:48;13.50;99.90
21037;DHT22;10677;50.942;4.028;2023-04-25T13:43:14;15.00;99.90
21037;DHT22;10677;50.942;4.028;2023-04-25T13:45:40;15.70;99.90
21037;DHT22;10677;50.942;4.028;2023-04-25T13:48:06;16.00;99.90
21037;DHT22;10677;50.942;4.028;2023-04-25T13:50:32;16.60;99.90
21037;DHT22;10677;50.942;4.028;2023-04-25T13:52:57;16.20;99.90
21037;DHT22;10677;50.942;4.028;2023-04-25T13:55:23;14.60;99.90
21037;DHT22;10677;50.942;4.028;2023-04-25T13:57:49;15.00;99.90
21037;DHT22;10677;50.942;4.028;2023-04-25T14:00:15;15.00;99.90
21037;DHT22;10677;50.942;4.028;2023-04-25T14:02:41;14.00;99.90
21037;DHT22;10677;50.942;4.028;2023-04-25T14:05:07;14.40;99.90
21037;DHT22;10677;50.942;4.028;2023-04-25T14:07:34;14.40;99.90
21037;DHT22;10677;50.942;4.028;2023-04-25T14:10:03;14.40;99.90
21037;DHT22;10677;50.942;4.028;2023-04-25T14:12:30;15.20;99.90
21037;DHT22;10677;50.942;4.028;2023-04-25T14:14:56;15.90;99.90
21037;DHT22;10677;50.942;4.028;2023-04-25T14:17:22;15.50;99.90
21037;DHT22;10677;50.942;4.028;2023-04-25T14:19:49;16.20;99.90
21037;DHT22;10677;50.942;4.028;2023-04-25T14:22:15;17.40;99.90
21037;DHT22;10677;50.942;4.028;2023-04-25T14:24:42;18.10;99.90
21037;DHT22;10677;50.942;4.028;2023-04-25T14:27:08;17.40;99.90
21037;DHT22;10677;50.942;4.028;2023-04-25T14:32:56;16.70;99.90
21037;DHT22;10677;50.942;4.028;2023-04-25T14:35:22;16.60;99.90
21037;DHT22;10677;50.942;4.028;2023-04-25T14:37:47;16.40;99.90
21037;DHT22;10677;50.942;4.028;2023-04-25T14:40:14;16.70;99.90
21037;DHT22;10677;50.942;4.028;2023-04-25T14:42:42;15.90;99.90
21037;DHT22;10677;50.942;4.028;2023-04-25T14:45:08;16.10;99.90
21037;DHT22;10677;50.942;4.028;2023-04-25T14:47:35;15.90;99.90
21037;DHT22;10677;50.942;4.028;2023-04-25T14:50:02;15.10;99.90
21037;DHT22;10677;50.942;4.028;2023-04-25T14:52:28;15.00;99.90
21037;DHT22;10677;50.942;4.028;2023-04-25T14:54:54;14.10;99.90
21037;DHT22;10677;50.942;4.028;2023-04-25T14:57:19;13.10;99.90
21037;DHT22;10677;50.942;4.028;2023-04-25T14:59:45;12.70;99.90
21037;DHT22;10677;50.942;4.028;2023-04-25T15:02:12;12.60;99.90
21037;DHT22;10677;50.942;4.028;2023-04-25T15:04:38;12.40;99.90
21037;DHT22;10677;50.942;4.028;2023-04-25T15:07:05;12.30;99.90
21037;DHT22;10677;50.942;4.028;2023-04-25T15:09:31;13.10;99.90
21037;DHT22;10677;50.942;4.028;2023-04-25T15:11:57;13.20;99.90
21037;DHT22;10677;50.942;4.028;2023-04-25T15:14:23;12.50;99.90
21037;DHT22;10677;50.942;4.028;2023-04-25T15:16:49;12.10;99.90
21037;DHT22;10677;50.942;4.028;2023-04-25T15:19:16;11.90;99.90
21037;DHT22;10677;50.942;4.028;2023-04-25T15:21:42;12.00;99.90
21037;DHT22;10677;50.942;4.028;2023-04-25T15:24:08;12.00;99.90
21037;DHT22;10677;50.942;4.028;2023-04-25T15:26:33;12.00;99.90
21037;DHT22;10677;50.942;4.028;2023-04-25T15:28:59;11.60;99.90
21037;DHT22;10677;50.942;4.028;2023-04-25T15:31:25;11.80;99.90
21037;DHT22;10677;50.942;4.028;2023-04-25T15:33:50;13.20;99.90
21037;DHT22;10677;50.942;4.028;2023-04-25T15:36:16;15.10;99.90
21037;DHT22;10677;50.942;4.028;2023-04-25T15:38:43;15.80;99.90
21037;DHT22;10677;50.942;4.028;2023-04-25T15:41:09;14.80;99.90
21037;DHT22;10677;50.942;4.028;2023-04-25T15:43:35;13.50;99.90
21037;DHT22;10677;50.942;4.028;2023-04-25T15:46:03;14.50;99.90
21037;DHT22;10677;50.942;4.028;2023-04-25T15:48:30;13.80;99.90
21037;DHT22;10677;50.942;4.028;2023-04-25T15:50:57;13.00;99.90